sensor_id;sensor_type;location;lat;lon;timestamp;P1;durP1;ratioP1;P2;durP2;ratioP2
32768;SDS011;23049;54.304;8.826;2022-08-01T00:02:09;15.02;;;9.85;;
32768;SDS011;23049;54.304;8.826;2022-08-01T00:04:35;18.67;;;10.43;;
32768;SDS011;23049;54.304;8.826;2022-08-01T00:07:01;14.30;;;10.00;;
32768;SDS011;23049;54.304;8.826;2022-08-01T00:09:26;19.52;;;11.38;;
32768;SDS011;23049;54.304;8.826;2022-08-01T00:11:52;13.50;;;10.68;;
32768;SDS011;23049;54.304;8.826;2022-08-01T00:14:18;16.42;;;10.63;;
32768;SDS011;23049;54.304;8.826;2022-08-01T00:16:43;17.05;;;9.82;;
32768;SDS011;23049;54.304;8.826;2022-08-01T00:19:09;25.70;;;11.80;;
32768;SDS011;23049;54.304;8.826;2022-08-01T00:21:35;26.65;;;11.27;;
32768;SDS011;23049;54.304;8.826;2022-08-01T00:26:35;14.73;;;11.05;;
32768;SDS011;23049;54.304;8.826;2022-08-01T00:29:00;20.08;;;11.88;;
32768;SDS011;23049;54.304;8.826;2022-08-01T00:31:26;20.40;;;11.98;;
32768;SDS011;23049;54.304;8.826;2022-08-01T00:33:52;15.32;;;11.20;;
32768;SDS011;23049;54.304;8.826;2022-08-01T00:36:17;16.75;;;11.00;;
32768;SDS011;23049;54.304;8.826;2022-08-01T00:41:26;22.50;;;12.40;;
32768;SDS011;23049;54.304;8.826;2022-08-01T00:43:52;26.05;;;11.57;;
32768;SDS011;23049;54.304;8.826;2022-08-01T00:46:18;14.90;;;9.93;;
32768;SDS011;23049;54.304;8.826;2022-08-01T00:48:43;24.98;;;10.68;;
32768;SDS011;23049;54.304;8.826;2022-08-01T00:51:09;16.38;;;10.55;;
32768;SDS011;23049;54.304;8.826;2022-08-01T00:53:35;16.83;;;10.80;;
32768;SDS011;23049;54.304;8.826;2022-08-01T00:56:01;13.93;;;9.60;;
32768;SDS011;23049;54.304;8.826;2022-08-01T00:58:28;16.17;;;9.10;;
32768;SDS011;23049;54.304;8.826;2022-08-01T01:00:56;18.60;;;8.95;;
32768;SDS011;23049;54.304;8.826;2022-08-01T01:03:22;15.63;;;8.75;;
32768;SDS011;23049;54.304;8.826;2022-08-01T01:05:50;12.95;;;7.55;;
32768;SDS011;23049;54.304;8.826;2022-08-01T01:08:39;15.52;;;8.73;;
32768;SDS011;23049;54.304;8.826;2022-08-01T01:11:13;17.83;;;7.90;;
32768;SDS011;23049;54.304;8.826;2022-08-01T01:13:52;13.93;;;8.63;;
32768;SDS011;23049;54.304;8.826;2022-08-01T01:16:22;19.77;;;9.68;;
32768;SDS011;23049;54.304;8.826;2022-08-01T01:18:51;18.05;;;9.32;;
32768;SDS011;23049;54.304;8.826;2022-08-01T01:23:54;13.57;;;10.13;;
32768;SDS011;23049;54.304;8.826;2022-08-01T01:31:48;19.02;;;13.00;;
32768;SDS011;23049;54.304;8.826;2022-08-01T01:34:29;17.15;;;12.68;;
32768;SDS011;23049;54.304;8.826;2022-08-01T01:36:59;21.38;;;12.68;;
32768;SDS011;23049;54.304;8.826;2022-08-01T01:39:27;23.48;;;14.45;;
32768;SDS011;23049;54.304;8.826;2022-08-01T01:44:26;23.50;;;13.88;;
32768;SDS011;23049;54.304;8.826;2022-08-01T01:46:53;20.38;;;13.70;;
32768;SDS011;23049;54.304;8.826;2022-08-01T01:49:21;31.38;;;14.95;;
32768;SDS011;23049;54.304;8.826;2022-08-01T01:51:51;28.40;;;14.55;;
32768;SDS011;23049;54.304;8.826;2022-08-01T01:54:19;26.88;;;13.10;;
32768;SDS011;23049;54.304;8.826;2022-08-01T01:56:46;37.60;;;14.63;;
32768;SDS011;23049;54.304;8.826;2022-08-01T01:59:19;28.60;;;12.32;;
32768;SDS011;23049;54.304;8.826;2022-08-01T02:01:49;20.05;;;11.65;;
32768;SDS011;23049;54.304;8.826;2022-08-01T02:04:18;28.45;;;12.93;;
32768;SDS011;23049;54.304;8.826;2022-08-01T02:06:46;28.13;;;11.60;;
32768;SDS011;23049;54.304;8.826;2022-08-01T02:09:18;25.63;;;10.00;;
32768;SDS011;23049;54.304;8.826;2022-08-01T02:11:48;25.40;;;10.65;;
32768;SDS011;23049;54.304;8.826;2022-08-01T02:14:15;18.58;;;9.48;;
32768;SDS011;23049;54.304;8.826;2022-08-01T02:16:44;22.67;;;10.40;;
32768;SDS011;23049;54.304;8.826;2022-08-01T02:19:11;30.52;;;12.18;;
32768;SDS011;23049;54.304;8.826;2022-08-01T02:21:45;33.30;;;12.50;;
32768;SDS011;23049;54.304;8.826;2022-08-01T02:24:17;23.30;;;11.18;;
32768;SDS011;23049;54.304;8.826;2022-08-01T02:26:53;18.92;;;11.00;;
32768;SDS011;23049;54.304;8.826;2022-08-01T02:32:31;28.45;;;12.82;;
32768;SDS011;23049;54.304;8.826;2022-08-01T02:35:00;31.23;;;12.43;;
32768;SDS011;23049;54.304;8.826;2022-08-01T02:37:28;39.85;;;11.63;;
32768;SDS011;23049;54.304;8.826;2022-08-01T02:39:58;29.58;;;10.88;;
32768;SDS011;23049;54.304;8.826;2022-08-01T02:42:25;21.80;;;10.63;;
32768;SDS011;23049;54.304;8.826;2022-08-01T02:44:52;39.55;;;10.68;;
32768;SDS011;23049;54.304;8.826;2022-08-01T02:47:19;24.00;;;10.07;;
32768;SDS011;23049;54.304;8.826;2022-08-01T02:49:47;29.55;;;10.45;;
32768;SDS011;23049;54.304;8.826;2022-08-01T02:52:16;24.83;;;10.23;;
32768;SDS011;23049;54.304;8.826;2022-08-01T02:54:46;26.10;;;9.40;;
32768;SDS011;23049;54.304;8.826;2022-08-01T02:57:14;32.00;;;12.00;;
32768;SDS011;23049;54.304;8.826;2022-08-01T02:59:42;35.63;;;10.30;;
32768;SDS011;23049;54.304;8.826;2022-08-01T03:02:09;29.27;;;10.35;;
32768;SDS011;23049;54.304;8.826;2022-08-01T03:04:37;27.58;;;9.40;;
32768;SDS011;23049;54.304;8.826;2022-08-01T03:07:04;33.95;;;10.45;;
32768;SDS011;23049;54.304;8.826;2022-08-01T03:09:34;43.70;;;10.25;;
32768;SDS011;23049;54.304;8.826;2022-08-01T03:12:02;29.45;;;9.05;;
32768;SDS011;23049;54.304;8.826;2022-08-01T03:14:31;29.40;;;8.93;;
32768;SDS011;23049;54.304;8.826;2022-08-01T03:17:00;41.53;;;9.70;;
32768;SDS011;23049;54.304;8.826;2022-08-01T03:19:26;25.30;;;8.88;;
32768;SDS011;23049;54.304;8.826;2022-08-01T03:21:53;31.35;;;10.23;;
32768;SDS011;23049;54.304;8.826;2022-08-01T03:26:38;20.45;;;8.25;;
32768;SDS011;23049;54.304;8.826;2022-08-01T03:29:06;35.58;;;10.07;;
32768;SDS011;23049;54.304;8.826;2022-08-01T03:31:37;36.45;;;10.45;;
32768;SDS011;23049;54.304;8.826;2022-08-01T03:34:07;44.30;;;10.95;;
32768;SDS011;23049;54.304;8.826;2022-08-01T03:36:33;50.78;;;11.75;;
32768;SDS011;23049;54.304;8.826;2022-08-01T03:39:07;49.45;;;10.70;;
32768;SDS011;23049;54.304;8.826;2022-08-01T03:41:37;38.47;;;12.45;;
32768;SDS011;23049;54.304;8.826;2022-08-01T03:44:16;47.83;;;13.02;;
32768;SDS011;23049;54.304;8.826;2022-08-01T03:46:50;41.97;;;11.85;;
32768;SDS011;23049;54.304;8.826;2022-08-01T03:49:22;49.90;;;12.52;;
32768;SDS011;23049;54.304;8.826;2022-08-01T03:51:51;48.95;;;12.23;;
32768;SDS011;23049;54.304;8.826;2022-08-01T03:54:23;48.10;;;12.07;;
32768;SDS011;23049;54.304;8.826;2022-08-01T03:56:50;53.10;;;12.10;;
32768;SDS011;23049;54.304;8.826;2022-08-01T03:59:17;40.08;;;11.43;;
32768;SDS011;23049;54.304;8.826;2022-08-01T04:01:44;43.08;;;11.05;;
32768;SDS011;23049;54.304;8.826;2022-08-01T04:04:11;48.47;;;11.80;;
32768;SDS011;23049;54.304;8.826;2022-08-01T04:06:38;49.00;;;13.38;;
32768;SDS011;23049;54.304;8.826;2022-08-01T04:09:04;46.72;;;12.15;;
32768;SDS011;23049;54.304;8.826;2022-08-01T04:11:32;43.80;;;13.82;;
32768;SDS011;23049;54.304;8.826;2022-08-01T04:13:58;49.58;;;12.20;;
32768;SDS011;23049;54.304;8.826;2022-08-01T04:16:24;51.58;;;12.88;;
32768;SDS011;23049;54.304;8.826;2022-08-01T04:18:50;57.38;;;11.80;;
32768;SDS011;23049;54.304;8.826;2022-08-01T04:21:17;41.88;;;11.98;;
32768;SDS011;23049;54.304;8.826;2022-08-01T04:23:45;40.88;;;11.63;;
32768;SDS011;23049;54.304;8.826;2022-08-01T04:26:12;49.58;;;11.13;;
32768;SDS011;23049;54.304;8.826;2022-08-01T04:28:40;46.53;;;11.30;;
32768;SDS011;23049;54.304;8.826;2022-08-01T04:31:09;43.42;;;12.30;;
32768;SDS011;23049;54.304;8.826;2022-08-01T04:33:37;39.60;;;10.70;;
32768;SDS011;23049;54.304;8.826;2022-08-01T04:36:06;38.53;;;9.85;;
32768;SDS011;23049;54.304;8.826;2022-08-01T04:38:35;41.30;;;10.68;;
32768;SDS011;23049;54.304;8.826;2022-08-01T04:41:02;39.40;;;10.30;;
32768;SDS011;23049;54.304;8.826;2022-08-01T04:43:31;49.47;;;8.93;;
32768;SDS011;23049;54.304;8.826;2022-08-01T04:45:57;36.83;;;10.02;;
32768;SDS011;23049;54.304;8.826;2022-08-01T04:48:24;27.48;;;7.65;;
32768;SDS011;23049;54.304;8.826;2022-08-01T04:50:51;25.45;;;8.30;;
32768;SDS011;23049;54.304;8.826;2022-08-01T04:53:18;27.00;;;6.82;;
32768;SDS011;23049;54.304;8.826;2022-08-01T04:55:46;34.88;;;7.78;;
32768;SDS011;23049;54.304;8.826;2022-08-01T04:58:12;25.98;;;5.35;;
32768;SDS011;23049;54.304;8.826;2022-08-01T05:00:39;22.65;;;5.53;;
32768;SDS011;23049;54.304;8.826;2022-08-01T05:03:05;23.35;;;5.65;;
32768;SDS011;23049;54.304;8.826;2022-08-01T05:05:31;22.50;;;4.70;;
32768;SDS011;23049;54.304;8.826;2022-08-01T05:07:57;25.48;;;5.90;;
32768;SDS011;23049;54.304;8.826;2022-08-01T05:10:22;16.52;;;5.18;;
32768;SDS011;23049;54.304;8.826;2022-08-01T05:12:48;28.58;;;6.35;;
32768;SDS011;23049;54.304;8.826;2022-08-01T05:15:13;23.30;;;6.55;;
32768;SDS011;23049;54.304;8.826;2022-08-01T05:17:39;24.25;;;4.50;;
32768;SDS011;23049;54.304;8.826;2022-08-01T05:20:07;22.75;;;5.05;;
32768;SDS011;23049;54.304;8.826;2022-08-01T05:22:33;18.80;;;5.35;;
32768;SDS011;23049;54.304;8.826;2022-08-01T05:24:58;22.60;;;4.85;;
32768;SDS011;23049;54.304;8.826;2022-08-01T05:27:24;21.15;;;5.18;;
32768;SDS011;23049;54.304;8.826;2022-08-01T05:29:50;20.00;;;4.72;;
32768;SDS011;23049;54.304;8.826;2022-08-01T05:32:16;23.85;;;4.53;;
32768;SDS011;23049;54.304;8.826;2022-08-01T05:34:42;25.35;;;4.53;;
32768;SDS011;23049;54.304;8.826;2022-08-01T05:37:08;20.55;;;5.03;;
32768;SDS011;23049;54.304;8.826;2022-08-01T05:39:34;24.45;;;4.93;;
32768;SDS011;23049;54.304;8.826;2022-08-01T05:42:00;16.85;;;4.20;;
32768;SDS011;23049;54.304;8.826;2022-08-01T05:44:25;22.02;;;5.40;;
32768;SDS011;23049;54.304;8.826;2022-08-01T05:46:51;23.02;;;3.92;;
32768;SDS011;23049;54.304;8.826;2022-08-01T05:49:17;22.33;;;5.22;;
32768;SDS011;23049;54.304;8.826;2022-08-01T05:51:42;18.10;;;4.38;;
32768;SDS011;23049;54.304;8.826;2022-08-01T05:54:08;15.00;;;3.75;;
32768;SDS011;23049;54.304;8.826;2022-08-01T05:56:33;22.52;;;4.53;;
32768;SDS011;23049;54.304;8.826;2022-08-01T05:58:59;21.65;;;5.05;;
32768;SDS011;23049;54.304;8.826;2022-08-01T06:01:25;23.55;;;5.57;;
32768;SDS011;23049;54.304;8.826;2022-08-01T06:03:51;19.05;;;4.60;;
32768;SDS011;23049;54.304;8.826;2022-08-01T06:06:19;23.25;;;4.65;;
32768;SDS011;23049;54.304;8.826;2022-08-01T06:08:45;17.77;;;4.03;;
32768;SDS011;23049;54.304;8.826;2022-08-01T06:13:42;16.75;;;3.63;;
32768;SDS011;23049;54.304;8.826;2022-08-01T06:16:07;21.83;;;4.40;;
32768;SDS011;23049;54.304;8.826;2022-08-01T06:18:33;15.98;;;3.85;;
32768;SDS011;23049;54.304;8.826;2022-08-01T06:20:59;21.38;;;4.22;;
32768;SDS011;23049;54.304;8.826;2022-08-01T06:23:24;21.70;;;4.35;;
32768;SDS011;23049;54.304;8.826;2022-08-01T06:25:53;16.80;;;3.50;;
32768;SDS011;23049;54.304;8.826;2022-08-01T06:28:19;18.08;;;3.38;;
32768;SDS011;23049;54.304;8.826;2022-08-01T06:33:29;15.77;;;3.55;;
32768;SDS011;23049;54.304;8.826;2022-08-01T06:35:55;16.65;;;3.13;;
32768;SDS011;23049;54.304;8.826;2022-08-01T06:38:21;21.63;;;4.60;;
32768;SDS011;23049;54.304;8.826;2022-08-01T06:47:24;15.55;;;3.92;;
32768;SDS011;23049;54.304;8.826;2022-08-01T06:49:49;17.83;;;4.30;;
32768;SDS011;23049;54.304;8.826;2022-08-01T06:54:39;16.38;;;3.50;;
32768;SDS011;23049;54.304;8.826;2022-08-01T06:57:05;16.08;;;4.75;;
32768;SDS011;23049;54.304;8.826;2022-08-01T06:59:30;12.88;;;3.75;;
32768;SDS011;23049;54.304;8.826;2022-08-01T07:01:56;23.42;;;4.07;;
32768;SDS011;23049;54.304;8.826;2022-08-01T07:04:22;14.18;;;3.45;;
32768;SDS011;23049;54.304;8.826;2022-08-01T07:06:47;13.82;;;3.63;;
32768;SDS011;23049;54.304;8.826;2022-08-01T07:09:13;11.38;;;3.00;;
32768;SDS011;23049;54.304;8.826;2022-08-01T07:11:39;20.80;;;3.72;;
32768;SDS011;23049;54.304;8.826;2022-08-01T07:14:04;18.83;;;3.75;;
32768;SDS011;23049;54.304;8.826;2022-08-01T07:16:30;21.73;;;3.95;;
32768;SDS011;23049;54.304;8.826;2022-08-01T07:18:55;26.85;;;4.05;;
32768;SDS011;23049;54.304;8.826;2022-08-01T07:21:21;21.55;;;3.50;;
32768;SDS011;23049;54.304;8.826;2022-08-01T07:23:47;18.27;;;3.88;;
32768;SDS011;23049;54.304;8.826;2022-08-01T07:26:12;18.75;;;3.47;;
32768;SDS011;23049;54.304;8.826;2022-08-01T07:28:38;15.70;;;3.65;;
32768;SDS011;23049;54.304;8.826;2022-08-01T07:31:03;25.95;;;4.10;;
32768;SDS011;23049;54.304;8.826;2022-08-01T07:33:30;15.70;;;4.00;;
32768;SDS011;23049;54.304;8.826;2022-08-01T07:35:55;17.67;;;3.58;;
32768;SDS011;23049;54.304;8.826;2022-08-01T07:38:21;12.75;;;3.05;;
32768;SDS011;23049;54.304;8.826;2022-08-01T07:40:46;15.95;;;3.40;;
32768;SDS011;23049;54.304;8.826;2022-08-01T07:43:13;14.50;;;3.25;;
32768;SDS011;23049;54.304;8.826;2022-08-01T07:45:39;16.13;;;2.92;;
32768;SDS011;23049;54.304;8.826;2022-08-01T07:48:06;20.27;;;3.63;;
32768;SDS011;23049;54.304;8.826;2022-08-01T07:50:32;16.92;;;3.58;;
32768;SDS011;23049;54.304;8.826;2022-08-01T07:52:59;18.88;;;4.35;;
32768;SDS011;23049;54.304;8.826;2022-08-01T07:55:25;15.27;;;3.45;;
32768;SDS011;23049;54.304;8.826;2022-08-01T07:57:51;17.23;;;3.20;;
32768;SDS011;23049;54.304;8.826;2022-08-01T08:00:17;15.68;;;3.45;;
32768;SDS011;23049;54.304;8.826;2022-08-01T08:05:24;17.38;;;3.30;;
32768;SDS011;23049;54.304;8.826;2022-08-01T08:07:50;14.55;;;3.10;;
32768;SDS011;23049;54.304;8.826;2022-08-01T08:10:15;14.48;;;2.60;;
32768;SDS011;23049;54.304;8.826;2022-08-01T08:12:41;17.58;;;2.90;;
32768;SDS011;23049;54.304;8.826;2022-08-01T08:15:07;21.58;;;3.47;;
32768;SDS011;23049;54.304;8.826;2022-08-01T08:17:33;16.48;;;3.15;;
32768;SDS011;23049;54.304;8.826;2022-08-01T08:19:59;12.43;;;3.28;;
32768;SDS011;23049;54.304;8.826;2022-08-01T08:22:25;15.32;;;2.95;;
32768;SDS011;23049;54.304;8.826;2022-08-01T08:24:51;15.77;;;3.67;;
32768;SDS011;23049;54.304;8.826;2022-08-01T08:27:17;17.95;;;3.33;;
32768;SDS011;23049;54.304;8.826;2022-08-01T08:29:42;14.73;;;3.45;;
32768;SDS011;23049;54.304;8.826;2022-08-01T08:37:45;15.25;;;2.63;;
32768;SDS011;23049;54.304;8.826;2022-08-01T08:40:10;13.27;;;3.42;;
32768;SDS011;23049;54.304;8.826;2022-08-01T08:42:36;16.17;;;3.10;;
32768;SDS011;23049;54.304;8.826;2022-08-01T08:45:05;17.88;;;3.35;;
32768;SDS011;23049;54.304;8.826;2022-08-01T08:47:31;11.77;;;2.58;;
32768;SDS011;23049;54.304;8.826;2022-08-01T08:49:59;16.00;;;2.38;;
32768;SDS011;23049;54.304;8.826;2022-08-01T08:52:25;14.20;;;2.63;;
32768;SDS011;23049;54.304;8.826;2022-08-01T08:54:52;11.10;;;2.70;;
32768;SDS011;23049;54.304;8.826;2022-08-01T08:57:19;17.75;;;3.10;;
32768;SDS011;23049;54.304;8.826;2022-08-01T08:59:45;16.98;;;3.13;;
32768;SDS011;23049;54.304;8.826;2022-08-01T09:02:12;15.70;;;3.83;;
32768;SDS011;23049;54.304;8.826;2022-08-01T09:04:37;28.50;;;3.67;;
32768;SDS011;23049;54.304;8.826;2022-08-01T09:07:05;13.77;;;3.13;;
32768;SDS011;23049;54.304;8.826;2022-08-01T09:09:32;15.45;;;3.20;;
32768;SDS011;23049;54.304;8.826;2022-08-01T09:11:58;12.18;;;2.20;;
32768;SDS011;23049;54.304;8.826;2022-08-01T09:14:24;15.02;;;2.85;;
32768;SDS011;23049;54.304;8.826;2022-08-01T09:17:02;21.15;;;3.03;;
32768;SDS011;23049;54.304;8.826;2022-08-01T09:19:34;12.05;;;2.50;;
32768;SDS011;23049;54.304;8.826;2022-08-01T09:22:02;15.73;;;2.58;;
32768;SDS011;23049;54.304;8.826;2022-08-01T09:24:29;10.32;;;2.58;;
32768;SDS011;23049;54.304;8.826;2022-08-01T09:26:57;10.20;;;2.67;;
32768;SDS011;23049;54.304;8.826;2022-08-01T09:29:24;15.48;;;3.38;;
32768;SDS011;23049;54.304;8.826;2022-08-01T09:31:52;12.80;;;2.83;;
32768;SDS011;23049;54.304;8.826;2022-08-01T09:34:30;14.98;;;3.05;;
32768;SDS011;23049;54.304;8.826;2022-08-01T09:36:58;16.25;;;3.03;;
32768;SDS011;23049;54.304;8.826;2022-08-01T09:39:26;12.80;;;3.00;;
32768;SDS011;23049;54.304;8.826;2022-08-01T09:41:57;15.07;;;2.88;;
32768;SDS011;23049;54.304;8.826;2022-08-01T09:44:37;12.35;;;2.30;;
32768;SDS011;23049;54.304;8.826;2022-08-01T09:47:09;14.55;;;2.65;;
32768;SDS011;23049;54.304;8.826;2022-08-01T09:49:37;14.52;;;3.00;;
32768;SDS011;23049;54.304;8.826;2022-08-01T09:54:39;14.02;;;2.85;;
32768;SDS011;23049;54.304;8.826;2022-08-01T09:57:07;10.30;;;2.42;;
32768;SDS011;23049;54.304;8.826;2022-08-01T09:59:41;12.05;;;2.60;;
32768;SDS011;23049;54.304;8.826;2022-08-01T10:02:11;13.05;;;2.55;;
32768;SDS011;23049;54.304;8.826;2022-08-01T10:04:47;14.30;;;2.40;;
32768;SDS011;23049;54.304;8.826;2022-08-01T10:07:13;14.70;;;2.72;;
32768;SDS011;23049;54.304;8.826;2022-08-01T10:09:42;11.73;;;2.95;;
32768;SDS011;23049;54.304;8.826;2022-08-01T10:12:09;13.23;;;2.22;;
32768;SDS011;23049;54.304;8.826;2022-08-01T10:14:37;7.93;;;2.85;;
32768;SDS011;23049;54.304;8.826;2022-08-01T10:17:03;8.02;;;2.05;;
32768;SDS011;23049;54.304;8.826;2022-08-01T10:19:32;10.00;;;2.72;;
32768;SDS011;23049;54.304;8.826;2022-08-01T10:22:00;11.05;;;2.30;;
32768;SDS011;23049;54.304;8.826;2022-08-01T10:24:29;12.25;;;2.55;;
32768;SDS011;23049;54.304;8.826;2022-08-01T10:27:01;9.73;;;2.80;;
32768;SDS011;23049;54.304;8.826;2022-08-01T10:29:31;14.63;;;2.83;;
32768;SDS011;23049;54.304;8.826;2022-08-01T10:32:06;12.88;;;2.90;;
32768;SDS011;23049;54.304;8.826;2022-08-01T10:34:34;9.90;;;3.40;;
32768;SDS011;23049;54.304;8.826;2022-08-01T10:39:44;11.98;;;3.05;;
32768;SDS011;23049;54.304;8.826;2022-08-01T10:42:11;13.07;;;2.70;;
32768;SDS011;23049;54.304;8.826;2022-08-01T10:44:37;11.63;;;2.58;;
32768;SDS011;23049;54.304;8.826;2022-08-01T10:47:10;8.10;;;2.10;;
32768;SDS011;23049;54.304;8.826;2022-08-01T10:49:45;13.57;;;2.97;;
32768;SDS011;23049;54.304;8.826;2022-08-01T10:52:16;13.35;;;3.05;;
32768;SDS011;23049;54.304;8.826;2022-08-01T10:54:42;11.35;;;3.05;;
32768;SDS011;23049;54.304;8.826;2022-08-01T10:57:08;12.68;;;3.30;;
32768;SDS011;23049;54.304;8.826;2022-08-01T10:59:35;10.23;;;3.00;;
32768;SDS011;23049;54.304;8.826;2022-08-01T11:02:11;15.13;;;4.53;;
32768;SDS011;23049;54.304;8.826;2022-08-01T11:05:04;15.88;;;3.35;;
32768;SDS011;23049;54.304;8.826;2022-08-01T11:07:43;14.45;;;3.10;;
32768;SDS011;23049;54.304;8.826;2022-08-01T11:10:19;12.95;;;3.10;;
32768;SDS011;23049;54.304;8.826;2022-08-01T11:12:59;13.25;;;2.45;;
32768;SDS011;23049;54.304;8.826;2022-08-01T11:15:28;10.73;;;2.50;;
32768;SDS011;23049;54.304;8.826;2022-08-01T11:17:54;17.30;;;3.20;;
32768;SDS011;23049;54.304;8.826;2022-08-01T11:20:22;10.98;;;2.88;;
32768;SDS011;23049;54.304;8.826;2022-08-01T11:33:05;12.57;;;2.90;;
32768;SDS011;23049;54.304;8.826;2022-08-01T11:43:25;14.73;;;3.33;;
32768;SDS011;23049;54.304;8.826;2022-08-01T11:45:52;14.45;;;3.58;;
32768;SDS011;23049;54.304;8.826;2022-08-01T11:58:15;11.38;;;3.13;;
32768;SDS011;23049;54.304;8.826;2022-08-01T12:03:11;9.02;;;2.90;;
32768;SDS011;23049;54.304;8.826;2022-08-01T12:05:37;10.40;;;3.13;;
32768;SDS011;23049;54.304;8.826;2022-08-01T12:08:03;9.70;;;3.13;;
32768;SDS011;23049;54.304;8.826;2022-08-01T12:10:32;11.00;;;3.42;;
32768;SDS011;23049;54.304;8.826;2022-08-01T12:13:03;11.10;;;2.60;;
32768;SDS011;23049;54.304;8.826;2022-08-01T12:15:33;12.65;;;2.70;;
32768;SDS011;23049;54.304;8.826;2022-08-01T12:18:03;13.18;;;3.25;;
32768;SDS011;23049;54.304;8.826;2022-08-01T12:23:40;13.48;;;3.45;;
32768;SDS011;23049;54.304;8.826;2022-08-01T12:26:06;10.60;;;2.17;;
32768;SDS011;23049;54.304;8.826;2022-08-01T12:28:38;12.57;;;3.45;;
32768;SDS011;23049;54.304;8.826;2022-08-01T12:31:05;14.70;;;3.00;;
32768;SDS011;23049;54.304;8.826;2022-08-01T12:33:31;16.20;;;2.80;;
32768;SDS011;23049;54.304;8.826;2022-08-01T12:35:56;11.73;;;2.70;;
32768;SDS011;23049;54.304;8.826;2022-08-01T12:38:22;14.48;;;2.75;;
32768;SDS011;23049;54.304;8.826;2022-08-01T12:43:15;15.25;;;3.20;;
32768;SDS011;23049;54.304;8.826;2022-08-01T12:45:42;22.02;;;3.25;;
32768;SDS011;23049;54.304;8.826;2022-08-01T12:48:11;8.07;;;2.55;;
32768;SDS011;23049;54.304;8.826;2022-08-01T12:50:43;16.65;;;3.50;;
32768;SDS011;23049;54.304;8.826;2022-08-01T12:53:16;11.95;;;3.28;;
32768;SDS011;23049;54.304;8.826;2022-08-01T12:55:44;14.20;;;3.00;;
32768;SDS011;23049;54.304;8.826;2022-08-01T12:58:12;12.57;;;2.35;;
32768;SDS011;23049;54.304;8.826;2022-08-01T13:03:11;10.00;;;2.60;;
32768;SDS011;23049;54.304;8.826;2022-08-01T13:05:54;13.50;;;2.70;;
32768;SDS011;23049;54.304;8.826;2022-08-01T13:08:29;9.82;;;1.98;;
32768;SDS011;23049;54.304;8.826;2022-08-01T13:11:00;11.45;;;1.88;;
32768;SDS011;23049;54.304;8.826;2022-08-01T13:13:40;10.00;;;2.28;;
32768;SDS011;23049;54.304;8.826;2022-08-01T13:16:08;9.95;;;2.00;;
32768;SDS011;23049;54.304;8.826;2022-08-01T13:18:35;8.95;;;2.00;;
32768;SDS011;23049;54.304;8.826;2022-08-01T13:21:17;10.65;;;2.20;;
32768;SDS011;23049;54.304;8.826;2022-08-01T13:29:12;17.00;;;3.08;;
32768;SDS011;23049;54.304;8.826;2022-08-01T13:31:40;10.40;;;2.78;;
32768;SDS011;23049;54.304;8.826;2022-08-01T13:34:06;9.82;;;2.40;;
32768;SDS011;23049;54.304;8.826;2022-08-01T13:36:33;15.45;;;2.60;;
32768;SDS011;23049;54.304;8.826;2022-08-01T13:38:59;7.80;;;2.00;;
32768;SDS011;23049;54.304;8.826;2022-08-01T13:41:44;9.90;;;3.15;;
32768;SDS011;23049;54.304;8.826;2022-08-01T13:44:10;9.73;;;2.20;;
32768;SDS011;23049;54.304;8.826;2022-08-01T13:46:37;11.63;;;3.05;;
32768;SDS011;23049;54.304;8.826;2022-08-01T13:49:03;7.25;;;2.08;;
32768;SDS011;23049;54.304;8.826;2022-08-01T13:51:30;11.90;;;2.70;;
32768;SDS011;23049;54.304;8.826;2022-08-01T13:53:56;10.30;;;2.47;;
32768;SDS011;23049;54.304;8.826;2022-08-01T13:56:22;11.15;;;2.40;;
32768;SDS011;23049;54.304;8.826;2022-08-01T13:58:48;18.52;;;3.05;;
32768;SDS011;23049;54.304;8.826;2022-08-01T14:01:14;19.55;;;2.75;;
32768;SDS011;23049;54.304;8.826;2022-08-01T14:03:40;11.18;;;3.05;;
32768;SDS011;23049;54.304;8.826;2022-08-01T14:06:05;11.75;;;2.15;;
32768;SDS011;23049;54.304;8.826;2022-08-01T14:08:31;11.48;;;3.00;;
32768;SDS011;23049;54.304;8.826;2022-08-01T14:10:57;9.70;;;2.88;;
32768;SDS011;23049;54.304;8.826;2022-08-01T14:13:26;9.52;;;2.22;;
32768;SDS011;23049;54.304;8.826;2022-08-01T14:15:52;12.80;;;2.83;;
32768;SDS011;23049;54.304;8.826;2022-08-01T14:18:18;8.57;;;2.40;;
32768;SDS011;23049;54.304;8.826;2022-08-01T14:26:40;14.07;;;2.35;;
32768;SDS011;23049;54.304;8.826;2022-08-01T14:29:05;9.45;;;2.33;;
32768;SDS011;23049;54.304;8.826;2022-08-01T14:31:31;12.77;;;2.45;;
32768;SDS011;23049;54.304;8.826;2022-08-01T14:33:56;15.98;;;2.63;;
32768;SDS011;23049;54.304;8.826;2022-08-01T14:36:31;13.85;;;2.95;;
32768;SDS011;23049;54.304;8.826;2022-08-01T14:38:57;17.27;;;3.17;;
32768;SDS011;23049;54.304;8.826;2022-08-01T14:41:23;10.10;;;2.42;;
32768;SDS011;23049;54.304;8.826;2022-08-01T14:43:48;13.68;;;2.63;;
32768;SDS011;23049;54.304;8.826;2022-08-01T14:46:14;18.23;;;2.50;;
32768;SDS011;23049;54.304;8.826;2022-08-01T14:48:40;10.70;;;3.00;;
32768;SDS011;23049;54.304;8.826;2022-08-01T14:51:06;9.85;;;1.95;;
32768;SDS011;23049;54.304;8.826;2022-08-01T14:53:32;13.15;;;2.38;;
32768;SDS011;23049;54.304;8.826;2022-08-01T14:55:59;14.23;;;2.40;;
32768;SDS011;23049;54.304;8.826;2022-08-01T14:58:25;8.23;;;2.70;;
32768;SDS011;23049;54.304;8.826;2022-08-01T15:03:13;11.77;;;2.58;;
32768;SDS011;23049;54.304;8.826;2022-08-01T15:05:39;10.45;;;2.42;;
32768;SDS011;23049;54.304;8.826;2022-08-01T15:08:05;11.43;;;2.53;;
32768;SDS011;23049;54.304;8.826;2022-08-01T15:10:31;7.55;;;2.28;;
32768;SDS011;23049;54.304;8.826;2022-08-01T15:12:57;8.20;;;2.45;;
32768;SDS011;23049;54.304;8.826;2022-08-01T15:15:25;7.60;;;2.35;;
32768;SDS011;23049;54.304;8.826;2022-08-01T15:17:51;11.65;;;2.63;;
32768;SDS011;23049;54.304;8.826;2022-08-01T15:20:17;13.57;;;3.28;;
32768;SDS011;23049;54.304;8.826;2022-08-01T15:22:43;9.65;;;2.40;;
32768;SDS011;23049;54.304;8.826;2022-08-01T15:25:09;11.70;;;2.42;;
32768;SDS011;23049;54.304;8.826;2022-08-01T15:27:35;11.65;;;2.85;;
32768;SDS011;23049;54.304;8.826;2022-08-01T15:30:00;8.05;;;2.63;;
32768;SDS011;23049;54.304;8.826;2022-08-01T15:32:28;8.65;;;2.20;;
32768;SDS011;23049;54.304;8.826;2022-08-01T15:34:54;9.63;;;2.28;;
32768;SDS011;23049;54.304;8.826;2022-08-01T15:37:19;13.13;;;2.53;;
32768;SDS011;23049;54.304;8.826;2022-08-01T15:39:45;9.27;;;2.28;;
32768;SDS011;23049;54.304;8.826;2022-08-01T15:42:12;11.23;;;2.50;;
32768;SDS011;23049;54.304;8.826;2022-08-01T15:44:39;10.40;;;2.15;;
32768;SDS011;23049;54.304;8.826;2022-08-01T15:47:05;11.85;;;3.05;;
32768;SDS011;23049;54.304;8.826;2022-08-01T15:49:32;14.82;;;2.88;;
32768;SDS011;23049;54.304;8.826;2022-08-01T15:52:00;12.23;;;2.30;;
32768;SDS011;23049;54.304;8.826;2022-08-01T15:54:27;9.32;;;2.17;;
32768;SDS011;23049;54.304;8.826;2022-08-01T15:56:53;8.90;;;2.15;;
32768;SDS011;23049;54.304;8.826;2022-08-01T15:59:18;14.88;;;2.78;;
32768;SDS011;23049;54.304;8.826;2022-08-01T16:01:44;7.70;;;2.35;;
32768;SDS011;23049;54.304;8.826;2022-08-01T16:04:10;12.95;;;2.70;;
32768;SDS011;23049;54.304;8.826;2022-08-01T16:06:36;10.18;;;2.75;;
32768;SDS011;23049;54.304;8.826;2022-08-01T16:09:05;9.18;;;2.25;;
32768;SDS011;23049;54.304;8.826;2022-08-01T16:11:30;8.65;;;3.00;;
32768;SDS011;23049;54.304;8.826;2022-08-01T16:13:56;8.30;;;2.20;;
32768;SDS011;23049;54.304;8.826;2022-08-01T16:16:22;10.32;;;2.28;;
32768;SDS011;23049;54.304;8.826;2022-08-01T16:18:48;9.00;;;2.10;;